Time;durP1;ratioP1;P1;durP2;ratioP2;P2;SDS_P1;SDS_P2;PMS_P1;PMS_P2;Temp;Humidity;BMP_temperature;BMP_pressure;BME280_temperature;BME280_humidity;BME280_pressure;Samples;Min_cycle;Max_cycle;Signal;HPM_P1;HPM_P2
2023/04/10 00:01:50;;;;;;;27.17;15.97;;;4.90;99.90;;;;;;4230825;28;20268;-68
2023/04/10 00:03:51;;;;;;;30.07;16.90;;;4.90;99.90;;;;;;4229742;28;20299;-61
2023/04/10 00:05:53;;;;;;;27.70;16.03;;;4.90;99.90;;;;;;4231015;28;20317;-61
2023/04/10 00:07:55;;;;;;;26.80;15.40;;;4.80;99.90;;;;;;4229522;28;20301;-61
2023/04/10 00:09:56;;;;;;;27.80;16.27;;;4.80;99.90;;;;;;4230610;28;20263;-65
2023/04/10 00:11:57;;;;;;;29.60;15.57;;;4.80;99.90;;;;;;4230953;28;20313;-60
2023/04/10 00:13:58;;;;;;;25.93;15.10;;;4.80;99.90;;;;;;4230116;28;20295;-62
2023/04/10 00:15:59;;;;;;;24.70;14.73;;;4.80;99.90;;;;;;4229742;28;20313;-63
2023/04/10 00:18:00;;;;;;;25.10;15.20;;;4.70;99.90;;;;;;4229496;28;20823;-65
2023/04/10 00:20:02;;;;;;;25.23;15.97;;;4.70;99.90;;;;;;4231072;28;20670;-60
2023/04/10 00:22:04;;;;;;;23.57;14.97;;;4.70;99.90;;;;;;4229936;28;20650;-61
2023/04/10 00:24:06;;;;;;;32.20;16.03;;;4.70;99.90;;;;;;4212604;28;20325;-60
2023/04/10 00:26:07;;;;;;;26.07;15.67;;;4.70;99.90;;;;;;4211274;28;20280;-64
2023/04/10 00:28:08;;;;;;;28.13;16.07;;;4.60;99.90;;;;;;4230799;28;20309;-61
2023/04/10 00:30:10;;;;;;;26.77;15.87;;;4.60;99.90;;;;;;4229732;28;20322;-61
2023/04/10 00:32:11;;;;;;;29.17;15.63;;;4.60;99.90;;;;;;4229775;28;20348;-59
2023/04/10 00:34:12;;;;;;;23.93;14.97;;;4.60;99.90;;;;;;4229391;28;20812;-62
2023/04/10 00:36:14;;;;;;;26.70;15.50;;;4.50;99.90;;;;;;4230389;28;20755;-68
2023/04/10 00:38:16;;;;;;;26.83;14.93;;;4.50;99.90;;;;;;4229616;28;20309;-59
2023/04/10 00:40:17;;;;;;;24.97;15.23;;;4.50;99.90;;;;;;4230094;28;20321;-61
2023/04/10 00:42:18;;;;;;;25.00;14.47;;;4.50;99.90;;;;;;4230319;28;20288;-62
2023/04/10 00:44:19;;;;;;;27.27;14.13;;;4.50;99.90;;;;;;4228288;28;20280;-61
2023/04/10 00:46:21;;;;;;;25.50;14.77;;;4.50;99.90;;;;;;4230189;28;20325;-60
2023/04/10 00:48:23;;;;;;;26.10;14.23;;;4.50;99.90;;;;;;4229381;28;20264;-60
2023/04/10 00:50:24;;;;;;;21.63;12.97;;;4.50;99.90;;;;;;4230666;28;20302;-60
2023/04/10 00:52:25;;;;;;;24.80;14.23;;;4.50;99.90;;;;;;4228493;28;20283;-61
2023/04/10 00:54:26;;;;;;;22.17;12.77;;;4.60;99.90;;;;;;4230557;28;20325;-60
2023/04/10 00:56:31;;;;;;;21.93;13.17;;;4.60;99.90;;;;;;4228847;28;20321;-67
2023/04/10 00:58:32;;;;;;;24.20;14.00;;;4.60;99.90;;;;;;4211803;28;20281;-61
2023/04/10 01:00:33;;;;;;;25.10;14.03;;;4.70;99.90;;;;;;4229131;28;20349;-61
2023/04/10 01:02:34;;;;;;;21.87;13.00;;;4.70;99.90;;;;;;4230532;28;20749;-62
2023/04/10 01:04:36;;;;;;;24.37;13.43;;;4.70;99.90;;;;;;4228557;28;20628;-61
2023/04/10 01:07:10;;;;;;;22.57;13.73;;;4.70;99.90;;;;;;4229331;28;20280;-68
2023/04/10 01:09:16;;;;;;;24.03;13.13;;;4.70;99.90;;;;;;4152145;28;20715;-62
2023/04/10 01:11:41;;;;;;;23.70;13.50;;;4.70;99.90;;;;;;4212285;28;20277;-61
2023/04/10 01:14:03;;;;;;;21.93;12.50;;;4.60;99.90;;;;;;4212583;28;20269;-63
2023/04/10 01:16:12;;;;;;;22.13;12.90;;;4.70;99.90;;;;;;4212823;28;20268;-61
2023/04/10 01:18:32;;;;;;;26.00;14.23;;;4.60;99.90;;;;;;4212122;28;20743;-61
2023/04/10 01:20:41;;;;;;;20.23;12.20;;;4.60;99.90;;;;;;4213214;28;20318;-65
2023/04/10 01:23:19;;;;;;;22.70;12.73;;;4.50;99.90;;;;;;4211589;28;20036;-61
2023/04/10 01:25:42;;;;;;;22.30;12.83;;;4.40;99.90;;;;;;4229610;28;20275;-62
2023/04/10 01:28:11;;;;;;;20.93;12.90;;;4.40;99.90;;;;;;4229360;28;20329;-62
2023/04/10 01:30:16;;;;;;;25.20;13.23;;;4.30;99.90;;;;;;4176859;28;20276;-62
2023/04/10 01:32:20;;;;;;;23.17;13.80;;;4.30;99.90;;;;;;4229517;28;20260;-62
2023/04/10 01:34:36;;;;;;;24.10;13.60;;;4.20;99.90;;;;;;4229076;28;20336;-61
2023/04/10 01:36:47;;;;;;;20.90;13.17;;;4.20;99.90;;;;;;4229422;28;20280;-65
2023/04/10 01:38:50;;;;;;;21.75;12.93;;;4.20;99.90;;;;;;4227980;28;20268;-61
2023/04/10 01:40:54;;;;;;;22.63;13.40;;;4.10;99.90;;;;;;4229276;28;20136;-62
2023/04/10 01:42:57;;;;;;;22.70;13.60;;;4.10;99.90;;;;;;4229431;28;20333;-61
2023/04/10 01:45:00;;;;;;;23.60;14.27;;;4.00;99.90;;;;;;4228816;28;20763;-61
2023/04/10 01:47:03;;;;;;;24.60;14.10;;;4.00;99.90;;;;;;4228658;28;20264;-61
2023/04/10 01:49:05;;;;;;;25.37;13.70;;;4.00;99.90;;;;;;4227722;28;20747;-61
2023/04/10 01:51:08;;;;;;;26.70;14.97;;;3.90;99.90;;;;;;4228219;28;20832;-61
2023/04/10 01:53:09;;;;;;;25.03;14.33;;;3.90;99.90;;;;;;4228160;28;20747;-61
2023/04/10 01:55:11;;;;;;;22.77;13.30;;;3.90;99.90;;;;;;4228617;28;20317;-60
2023/04/10 01:57:13;;;;;;;24.17;13.17;;;3.90;99.90;;;;;;4227504;28;20325;-60
2023/04/10 01:59:15;;;;;;;25.37;14.37;;;3.80;99.90;;;;;;4210749;28;20302;-61
2023/04/10 02:01:20;;;;;;;24.47;13.63;;;3.80;99.90;;;;;;4226924;28;20306;-61
2023/04/10 02:03:21;;;;;;;22.40;12.73;;;3.80;99.90;;;;;;4229019;28;20287;-62
2023/04/10 02:05:28;;;;;;;24.13;13.20;;;3.80;99.90;;;;;;4227616;28;20687;-58
2023/04/10 02:07:38;;;;;;;28.03;12.50;;;3.80;99.90;;;;;;4228442;28;20268;-61
2023/04/10 02:10:03;;;;;;;24.43;13.37;;;3.80;99.90;;;;;;4228221;28;20263;-62
2023/04/10 02:12:08;;;;;;;23.17;12.90;;;3.80;99.90;;;;;;4228898;28;20433;-66
2023/04/10 02:14:15;;;;;;;20.90;13.33;;;3.70;99.90;;;;;;4228203;28;20280;-60
2023/04/10 02:16:20;;;;;;;21.17;12.63;;;3.70;99.90;;;;;;4228778;28;20283;-60
2023/04/10 02:18:22;;;;;;;20.67;12.50;;;3.70;99.90;;;;;;4227125;28;20264;-61
2023/04/10 02:20:24;;;;;;;26.30;12.90;;;3.70;99.90;;;;;;4229146;28;20276;-61
2023/04/10 02:22:26;;;;;;;23.77;13.50;;;3.70;99.90;;;;;;4227721;28;20670;-61
2023/04/10 02:24:27;;;;;;;19.93;11.97;;;3.70;99.90;;;;;;4227443;28;20341;-62
2023/04/10 02:26:29;;;;;;;24.03;12.67;;;3.70;99.90;;;;;;4227788;28;20284;-62
2023/04/10 02:28:30;;;;;;;21.23;12.67;;;3.70;99.90;;;;;;4228562;28;20280;-63
2023/04/10 02:30:32;;;;;;;20.97;12.67;;;3.70;99.90;;;;;;4227312;28;20272;-61
2023/04/10 02:32:33;;;;;;;19.33;11.37;;;3.70;99.90;;;;;;4227663;28;20333;-62
2023/04/10 02:34:35;;;;;;;19.97;12.47;;;3.70;99.90;;;;;;4228410;28;20304;-64
2023/04/10 02:36:39;;;;;;;21.43;12.23;;;3.70;99.90;;;;;;4227655;28;20260;-61
2023/04/10 02:38:40;;;;;;;25.07;12.83;;;3.70;99.90;;;;;;4228179;28;20824;-61
2023/04/10 02:40:41;;;;;;;18.80;12.00;;;3.70;99.90;;;;;;4227164;28;20268;-60
2023/04/10 02:42:42;;;;;;;20.50;11.67;;;3.60;99.90;;;;;;4228613;28;20352;-61
2023/04/10 02:44:43;;;;;;;21.47;12.20;;;3.60;99.90;;;;;;4227432;28;20337;-61
2023/04/10 02:46:45;;;;;;;26.23;12.93;;;3.60;99.90;;;;;;4228041;28;20759;-60
2023/04/10 02:48:46;;;;;;;21.80;12.37;;;3.60;99.90;;;;;;4227138;28;20324;-61
2023/04/10 02:50:48;;;;;;;22.63;12.13;;;3.60;99.90;;;;;;4228646;28;20298;-60
2023/04/10 02:52:49;;;;;;;20.53;11.27;;;3.50;99.90;;;;;;4227466;28;20275;-62
2023/04/10 02:54:50;;;;;;;21.43;12.47;;;3.50;99.90;;;;;;4228212;28;20622;-63
2023/04/10 02:56:51;;;;;;;18.57;11.93;;;3.50;99.90;;;;;;4227406;28;20263;-62
2023/04/10 02:58:52;;;;;;;22.30;11.83;;;3.50;99.90;;;;;;4227884;28;20272;-63
2023/04/10 03:00:54;;;;;;;20.00;11.83;;;3.40;99.90;;;;;;4227236;28;20638;-62
2023/04/10 03:02:55;;;;;;;18.43;11.37;;;3.40;99.90;;;;;;4227545;28;20653;-61
2023/04/10 03:04:56;;;;;;;22.00;11.60;;;3.40;99.90;;;;;;4227937;28;20287;-61
2023/04/10 03:06:58;;;;;;;21.23;12.37;;;3.40;99.90;;;;;;4226493;28;20759;-62
2023/04/10 03:08:59;;;;;;;22.37;12.07;;;3.30;99.90;;;;;;4227822;28;20264;-61
2023/04/10 03:11:00;;;;;;;23.10;12.00;;;3.30;99.90;;;;;;4226969;28;20264;-61
2023/04/10 03:13:01;;;;;;;21.90;11.90;;;3.30;99.90;;;;;;4228693;28;20252;-62
2023/04/10 03:15:03;;;;;;;20.23;12.30;;;3.20;99.90;;;;;;4227196;28;20665;-62
2023/04/10 03:17:04;;;;;;;23.33;12.03;;;3.20;99.90;;;;;;4227433;28;20318;-61
2023/04/10 03:19:05;;;;;;;20.43;11.60;;;3.30;99.90;;;;;;4226009;28;20321;-61
2023/04/10 03:21:06;;;;;;;18.03;11.03;;;3.20;99.90;;;;;;4228312;28;20288;-60
2023/04/10 03:23:08;;;;;;;20.60;11.67;;;3.20;99.90;;;;;;4227085;28;20669;-61
2023/04/10 03:25:09;;;;;;;17.30;10.77;;;3.20;99.90;;;;;;4228226;28;20759;-62
2023/04/10 03:27:10;;;;;;;19.83;11.40;;;3.20;99.90;;;;;;4226947;28;20290;-59
2023/04/10 03:29:12;;;;;;;17.73;10.47;;;3.10;99.90;;;;;;4227992;28;20317;-62
2023/04/10 03:31:14;;;;;;;19.20;10.83;;;3.10;99.90;;;;;;4227277;28;20256;-62
2023/04/10 03:33:15;;;;;;;18.90;11.60;;;3.10;99.90;;;;;;4227806;28;20305;-61
2023/04/10 03:35:16;;;;;;;20.37;11.87;;;3.20;99.90;;;;;;4227707;28;20240;-62
2023/04/10 03:37:18;;;;;;;20.43;11.67;;;3.20;99.90;;;;;;4227206;28;20260;-62
2023/04/10 03:39:19;;;;;;;19.87;11.70;;;3.20;99.90;;;;;;4227489;28;20404;-62
2023/04/10 03:41:21;;;;;;;19.27;11.70;;;3.20;99.90;;;;;;4226270;28;20276;-66
2023/04/10 03:43:23;;;;;;;17.87;10.33;;;3.20;99.90;;;;;;4228536;28;20272;-62
2023/04/10 03:45:25;;;;;;;23.67;12.00;;;3.20;99.90;;;;;;4224666;28;20288;-61
2023/04/10 03:47:27;;;;;;;20.23;11.83;;;3.20;99.90;;;;;;4226051;28;20292;-61
2023/04/10 03:49:28;;;;;;;16.97;10.50;;;3.20;99.90;;;;;;4226517;28;20284;-61
2023/04/10 03:51:30;;;;;;;19.60;10.90;;;3.20;99.90;;;;;;4227427;28;20752;-61
2023/04/10 03:53:34;;;;;;;21.37;11.70;;;3.20;99.90;;;;;;4226503;28;20264;-62
2023/04/10 03:55:37;;;;;;;22.37;12.07;;;3.20;99.90;;;;;;4227372;28;20325;-62
2023/04/10 03:57:38;;;;;;;23.40;11.97;;;3.20;99.90;;;;;;4226785;28;20796;-62
2023/04/10 03:59:39;;;;;;;34.37;11.73;;;3.20;99.90;;;;;;4227410;28;20268;-62
2023/04/10 04:01:40;;;;;;;21.73;11.87;;;3.20;99.90;;;;;;4226305;28;20267;-63
2023/04/10 04:03:41;;;;;;;24.27;12.17;;;3.20;99.90;;;;;;4227460;28;20828;-62
2023/04/10 04:05:43;;;;;;;23.63;12.87;;;3.30;99.90;;;;;;4226841;28;20296;-63
2023/04/10 04:07:44;;;;;;;22.20;11.77;;;3.50;99.90;;;;;;4226318;28;20280;-60
2023/04/10 04:09:45;;;;;;;21.03;11.77;;;3.70;99.90;;;;;;4227086;28;20252;-62
2023/04/10 04:11:46;;;;;;;24.23;12.47;;;3.90;99.90;;;;;;4225587;28;20330;-60
2023/04/10 04:13:47;;;;;;;24.27;13.07;;;4.30;99.90;;;;;;4227262;28;20268;-63
2023/04/10 04:15:49;;;;;;;22.13;13.37;;;4.60;99.90;;;;;;4224689;28;20333;-62
2023/04/10 04:17:50;;;;;;;24.47;13.23;;;4.90;99.90;;;;;;4228325;28;20252;-63
2023/04/10 04:19:51;;;;;;;27.97;13.20;;;5.10;99.90;;;;;;4209507;28;20338;-63
2023/04/10 04:21:52;;;;;;;23.33;13.43;;;5.40;99.90;;;;;;4221589;28;20291;-67
2023/04/10 04:23:54;;;;;;;24.43;12.80;;;5.70;99.90;;;;;;4226872;28;20767;-62
2023/04/10 04:25:56;;;;;;;23.13;11.77;;;6.00;99.90;;;;;;4229285;28;20292;-62
2023/04/10 04:27:57;;;;;;;21.97;10.77;;;6.30;99.90;;;;;;4228251;28;20685;-61
2023/04/10 04:29:58;;;;;;;20.33;12.57;;;6.70;99.90;;;;;;4228754;28;20325;-62
2023/04/10 04:31:59;;;;;;;22.47;11.50;;;7.00;99.90;;;;;;4229304;28;20272;-62
2023/04/10 04:34:01;;;;;;;19.50;11.40;;;7.40;99.90;;;;;;4230310;28;20491;-61
2023/04/10 04:36:02;;;;;;;21.40;11.60;;;7.70;99.90;;;;;;4229145;28;20039;-62
2023/04/10 04:38:03;;;;;;;21.10;11.43;;;8.00;99.90;;;;;;4229470;28;20040;-62
2023/04/10 04:40:05;;;;;;;22.63;12.30;;;8.40;99.90;;;;;;4229614;28;20076;-62
2023/04/10 04:42:06;;;;;;;19.07;11.33;;;8.70;99.90;;;;;;4229054;28;20040;-62
2023/04/10 04:44:08;;;;;;;23.57;10.90;;;9.10;99.90;;;;;;4230725;28;20634;-67
2023/04/10 04:46:09;;;;;;;25.67;11.60;;;9.50;99.90;;;;;;4229010;28;20073;-63
2023/04/10 04:48:10;;;;;;;16.47;10.73;;;9.80;99.90;;;;;;4230390;28;20032;-64
2023/04/10 04:50:11;;;;;;;22.47;10.83;;;10.20;99.90;;;;;;4228634;28;20039;-63
2023/04/10 04:52:12;;;;;;;16.27;11.23;;;10.50;99.90;;;;;;4228774;28;20093;-62
2023/04/10 04:54:14;;;;;;;20.07;10.37;;;10.90;99.90;;;;;;4228331;28;20028;-61
2023/04/10 04:56:15;;;;;;;25.27;10.60;;;11.20;99.90;;;;;;4228868;28;20044;-62
2023/04/10 04:58:16;;;;;;;19.13;11.73;;;11.50;99.90;;;;;;4228521;28;20104;-64
2023/04/10 05:00:17;;;;;;;19.07;10.17;;;11.60;99.90;;;;;;4211766;28;20036;-63
2023/04/10 05:02:21;;;;;;;19.13;11.23;;;11.90;99.90;;;;;;4228844;28;20028;-61
2023/04/10 05:04:22;;;;;;;15.93;9.27;;;12.40;99.90;;;;;;4229058;28;20052;-67
2023/04/10 05:06:23;;;;;;;13.73;9.07;;;12.70;99.90;;;;;;4227612;28;20441;-62
2023/04/10 05:08:25;;;;;;;24.10;10.77;;;13.10;99.90;;;;;;4229690;28;20096;-64
2023/04/10 05:10:26;;;;;;;13.53;9.40;;;13.40;99.90;;;;;;4229322;28;20041;-60
2023/04/10 05:12:27;;;;;;;19.63;11.37;;;13.80;99.90;;;;;;4229284;28;20032;-60
2023/04/10 05:14:28;;;;;;;14.47;10.47;;;14.00;99.90;;;;;;4229659;28;20485;-61
2023/04/10 05:16:29;;;;;;;21.23;10.97;;;14.10;99.90;;;;;;4228065;28;20092;-60
2023/04/10 05:18:30;;;;;;;24.53;11.40;;;14.20;99.90;;;;;;4229516;28;20479;-61
2023/04/10 05:20:34;;;;;;;23.60;10.40;;;14.50;99.90;;;;;;4228189;28;20449;-67
2023/04/10 05:22:35;;;;;;;15.70;10.07;;;14.70;99.60;;;;;;4229813;28;20028;-60
2023/04/10 05:24:37;;;;;;;20.00;10.40;;;14.60;99.30;;;;;;4228164;28;20047;-62
2023/04/10 05:26:38;;;;;;;14.80;9.33;;;14.80;99.20;;;;;;4229898;28;20031;-62
2023/04/10 05:28:39;;;;;;;14.85;9.27;;;14.70;98.20;;;;;;4228150;28;20471;-62
2023/04/10 05:30:40;;;;;;;15.75;9.63;;;14.80;98.00;;;;;;4228413;28;20035;-68
2023/04/10 05:32:41;;;;;;;22.90;9.45;;;15.10;97.40;;;;;;4227533;28;20369;-68
2023/04/10 05:34:43;;;;;;;15.43;9.07;;;15.50;96.50;;;;;;4229154;28;20450;-65
2023/04/10 05:36:44;;;;;;;13.63;8.20;;;15.80;95.80;;;;;;4228342;28;20096;-61
2023/04/10 05:38:45;;;;;;;14.68;7.95;;;16.10;95.20;;;;;;4228970;28;20039;-64
2023/04/10 05:40:46;;;;;;;10.82;8.05;;;16.10;94.00;;;;;;4228589;28;20839;-64
2023/04/10 05:42:47;;;;;;;11.10;7.82;;;16.20;93.50;;;;;;4228829;28;20023;-67
2023/04/10 05:44:49;;;;;;;11.07;7.25;;;16.40;93.00;;;;;;4229031;28;20477;-67
2023/04/10 05:46:50;;;;;;;11.85;7.38;;;16.40;92.80;;;;;;4227909;28;20070;-69
2023/04/10 05:48:52;;;;;;;11.50;6.38;;;16.10;92.00;;;;;;4229273;28;20053;-66
2023/04/10 05:50:53;;;;;;;12.00;6.95;;;16.00;91.70;;;;;;4227668;28;20544;-63
2023/04/10 05:52:54;;;;;;;10.63;6.97;;;15.80;91.40;;;;;;4229355;28;20032;-62
2023/04/10 05:54:55;;;;;;;12.60;7.50;;;15.80;91.50;;;;;;4226478;28;20101;-67
2023/04/10 05:56:56;;;;;;;9.93;7.10;;;16.10;91.10;;;;;;4227610;28;20477;-65
2023/04/10 05:58:57;;;;;;;11.80;7.57;;;16.10;90.40;;;;;;4227503;28;20081;-66
2023/04/10 06:00:59;;;;;;;11.13;6.78;;;16.20;90.10;;;;;;4227767;28;20032;-60
2023/04/10 06:03:00;;;;;;;10.75;6.65;;;16.30;90.00;;;;;;4227789;28;20081;-66
2023/04/10 06:05:01;;;;;;;8.90;6.70;;;16.30;89.20;;;;;;4229103;28;20020;-67
2023/04/10 06:07:02;;;;;;;12.48;7.13;;;16.10;89.70;;;;;;4227279;28;20566;-62
2023/04/10 06:09:03;;;;;;;10.02;6.97;;;15.90;88.90;;;;;;4228438;28;20483;-70
2023/04/10 06:11:05;;;;;;;11.90;7.38;;;16.10;88.80;;;;;;4228333;28;20425;-66
2023/04/10 06:13:06;;;;;;;12.05;7.40;;;15.90;88.20;;;;;;4228426;28;20032;-68
2023/04/10 06:15:07;;;;;;;12.93;8.27;;;15.80;88.60;;;;;;4228120;28;20047;-67
2023/04/10 06:17:09;;;;;;;10.85;8.52;;;15.80;87.90;;;;;;4226869;28;20089;-69
2023/04/10 06:19:10;;;;;;;10.80;8.10;;;15.60;88.30;;;;;;4228790;28;20028;-61
2023/04/10 06:21:11;;;;;;;12.50;7.93;;;15.50;88.40;;;;;;4227602;28;20031;-61
2023/04/10 06:23:12;;;;;;;12.63;8.05;;;16.00;88.70;;;;;;4228937;28;20035;-60
2023/04/10 06:25:14;;;;;;;12.18;8.82;;;16.40;88.00;;;;;;4226292;28;20035;-61
2023/04/10 06:27:15;;;;;;;12.88;7.60;;;17.00;86.90;;;;;;4227997;28;20044;-61
2023/04/10 06:29:16;;;;;;;11.45;7.88;;;17.60;85.60;;;;;;4226695;28;20039;-61
2023/04/10 06:31:20;;;;;;;13.30;7.70;;;17.80;84.40;;;;;;4227819;28;20433;-61
2023/04/10 06:33:22;;;;;;;13.10;8.13;;;17.70;83.60;;;;;;4226506;28;20039;-63
2023/04/10 06:35:23;;;;;;;10.25;7.28;;;17.30;83.80;;;;;;4227379;28;20104;-63
2023/04/10 06:37:31;;;;;;;10.18;7.45;;;17.60;84.10;;;;;;4227594;28;20475;-61
2023/04/10 06:39:32;;;;;;;10.45;7.72;;;18.00;82.70;;;;;;4228342;28;20073;-61
2023/04/10 06:41:33;;;;;;;11.65;8.32;;;18.10;82.30;;;;;;4226638;28;20100;-61
2023/04/10 06:43:36;;;;;;;10.23;7.63;;;17.90;81.90;;;;;;4228287;28;20027;-62
2023/04/10 06:45:37;;;;;;;15.35;8.10;;;18.00;82.50;;;;;;4227638;28;20100;-61
2023/04/10 06:47:39;;;;;;;9.73;7.22;;;17.80;82.10;;;;;;4227544;28;20080;-64
2023/04/10 06:49:40;;;;;;;9.93;7.85;;;18.00;82.00;;;;;;4228243;28;20019;-67
2023/04/10 06:51:41;;;;;;;9.50;7.20;;;18.00;81.50;;;;;;4208593;28;20058;-62
2023/04/10 06:53:42;;;;;;;9.45;7.13;;;18.00;80.80;;;;;;4228314;28;20036;-61
2023/04/10 06:55:45;;;;;;;11.40;8.05;;;18.10;81.00;;;;;;4227082;28;20036;-62
2023/04/10 06:57:46;;;;;;;10.32;7.57;;;18.30;80.60;;;;;;4228295;28;20035;-62
2023/04/10 06:59:47;;;;;;;10.35;7.13;;;18.20;80.40;;;;;;4227140;28;20128;-62
2023/04/10 07:01:50;;;;;;;10.30;6.68;;;18.50;79.90;;;;;;4227632;28;20120;-61
2023/04/10 07:03:51;;;;;;;10.30;6.90;;;18.50;78.80;;;;;;4226516;28;20132;-63
2023/04/10 07:05:52;;;;;;;9.43;6.68;;;18.80;78.70;;;;;;4228465;28;20540;-62
2023/04/10 07:07:53;;;;;;;10.30;7.47;;;18.60;78.40;;;;;;4226466;28;20381;-61
2023/04/10 07:09:56;;;;;;;10.20;7.10;;;18.70;78.90;;;;;;4227609;28;20027;-64
2023/04/10 07:11:57;;;;;;;10.73;7.32;;;18.80;78.30;;;;;;4226504;28;20081;-61
2023/04/10 07:13:59;;;;;;;9.73;7.22;;;18.90;77.90;;;;;;4227683;28;20483;-62
2023/04/10 07:16:00;;;;;;;11.82;7.53;;;18.90;77.70;;;;;;4227275;28;20035;-63
2023/04/10 07:18:01;;;;;;;17.88;9.00;;;18.50;77.60;;;;;;4226623;28;20532;-63
2023/04/10 07:20:03;;;;;;;11.57;8.32;;;18.60;78.00;;;;;;4227872;28;20475;-62
2023/04/10 07:22:04;;;;;;;9.35;6.68;;;18.50;78.40;;;;;;4226068;28;20402;-62
2023/04/10 07:24:05;;;;;;;11.65;7.38;;;18.50;78.30;;;;;;4227404;28;20032;-64
2023/04/10 07:26:06;;;;;;;9.43;6.72;;;18.70;77.90;;;;;;4226365;28;20031;-68
2023/04/10 07:28:07;;;;;;;8.90;6.90;;;18.70;77.90;;;;;;4228020;28;20028;-61
2023/04/10 07:30:08;;;;;;;11.07;7.22;;;18.80;77.60;;;;;;4226865;28;20352;-64
2023/04/10 07:32:10;;;;;;;12.05;6.38;;;18.40;77.50;;;;;;4228217;28;20101;-61
2023/04/10 07:34:11;;;;;;;9.57;6.18;;;18.10;77.60;;;;;;4226364;28;20039;-61
2023/04/10 07:36:12;;;;;;;10.63;6.43;;;18.10;77.90;;;;;;4227759;28;20061;-61
2023/04/10 07:38:13;;;;;;;10.68;6.13;;;17.90;77.50;;;;;;4225991;28;20035;-62
2023/04/10 07:40:14;;;;;;;9.30;6.28;;;17.90;78.10;;;;;;4227254;28;20089;-61
2023/04/10 07:42:16;;;;;;;9.15;6.18;;;18.10;77.90;;;;;;4226703;28;20028;-61
2023/04/10 07:44:17;;;;;;;11.07;6.03;;;18.00;77.00;;;;;;4227085;28;20044;-64
2023/04/10 07:46:18;;;;;;;9.82;6.38;;;17.70;76.90;;;;;;4226273;28;20483;-61
2023/04/10 07:48:20;;;;;;;9.55;5.35;;;17.40;77.20;;;;;;4226621;28;20481;-60
2023/04/10 07:50:21;;;;;;;6.20;4.90;;;17.20;77.30;;;;;;4227428;28;20036;-61
2023/04/10 07:52:22;;;;;;;6.65;4.03;;;17.00;76.50;;;;;;4226038;28;20992;-61
2023/04/10 07:54:23;;;;;;;7.07;2.78;;;16.50;75.70;;;;;;4230388;28;20039;-60
2023/04/10 07:56:25;;;;;;;2.28;2.05;;;16.30;75.10;;;;;;4229838;28;20100;-62
2023/04/10 07:58:26;;;;;;;4.40;2.65;;;16.20;74.70;;;;;;4230962;28;20076;-62
2023/04/10 08:00:27;;;;;;;3.95;2.63;;;16.20;73.30;;;;;;4229782;28;20081;-62
2023/04/10 08:02:28;;;;;;;3.15;1.48;;;16.00;73.60;;;;;;4230381;28;20039;-63
2023/04/10 08:04:29;;;;;;;3.10;1.80;;;15.80;72.10;;;;;;4229230;28;20500;-64
2023/04/10 08:06:31;;;;;;;4.10;2.17;;;15.80;72.10;;;;;;4231029;28;20084;-59
2023/04/10 08:08:32;;;;;;;4.95;1.80;;;15.80;72.50;;;;;;4229838;28;20089;-62
2023/04/10 08:10:36;;;;;;;2.10;1.67;;;15.80;72.00;;;;;;4229888;28;20035;-61
2023/04/10 08:12:38;;;;;;;3.45;1.90;;;15.70;71.40;;;;;;4228564;28;20023;-62
2023/04/10 08:14:39;;;;;;;3.10;1.85;;;15.60;70.80;;;;;;4230266;28;20035;-61
2023/04/10 08:16:40;;;;;;;2.33;1.90;;;15.60;71.10;;;;;;4228931;28;20487;-62
2023/04/10 08:18:41;;;;;;;5.22;2.50;;;15.70;71.10;;;;;;4229902;28;20088;-69
2023/04/10 08:20:42;;;;;;;2.38;1.90;;;16.00;71.20;;;;;;4230273;28;20031;-62
2023/04/10 08:22:43;;;;;;;4.95;2.00;;;16.20;71.10;;;;;;4229397;28;20031;-61
2023/04/10 08:24:44;;;;;;;3.17;2.30;;;16.20;70.70;;;;;;4230484;28;20081;-62
2023/04/10 08:26:45;;;;;;;3.65;2.58;;;16.30;70.40;;;;;;4228524;28;20096;-62
2023/04/10 08:28:51;;;;;;;5.65;2.42;;;16.10;69.50;;;;;;4230536;28;20080;-61
2023/04/10 08:30:52;;;;;;;3.03;2.30;;;15.90;69.70;;;;;;4228443;28;20035;-62
2023/04/10 08:32:54;;;;;;;6.22;2.65;;;15.70;70.60;;;;;;4229859;28;20089;-62
2023/04/10 08:34:55;;;;;;;2.97;2.67;;;15.80;70.70;;;;;;4229104;28;20092;-62
2023/04/10 08:36:56;;;;;;;2.53;2.00;;;15.80;70.80;;;;;;4230406;28;20028;-67
2023/04/10 08:38:58;;;;;;;2.45;2.25;;;15.80;70.90;;;;;;4228443;28;20032;-64
2023/04/10 08:40:59;;;;;;;3.80;2.75;;;15.60;69.30;;;;;;4230500;28;20023;-70
2023/04/10 08:43:00;;;;;;;2.33;1.98;;;15.40;69.50;;;;;;4229030;28;20031;-62
2023/04/10 08:45:02;;;;;;;4.00;2.50;;;15.50;70.40;;;;;;4229493;28;20065;-66
2023/04/10 08:47:05;;;;;;;3.10;2.50;;;15.70;70.60;;;;;;4229038;28;20036;-62
2023/04/10 08:49:09;;;;;;;3.08;2.47;;;15.80;70.50;;;;;;4229522;28;20432;-70
2023/04/10 08:51:19;;;;;;;2.42;2.03;;;15.90;70.40;;;;;;4210852;28;20066;-60
2023/04/10 08:53:23;;;;;;;3.22;1.92;;;16.00;69.70;;;;;;4228385;28;20135;-66
2023/04/10 08:55:25;;;;;;;4.50;2.45;;;16.10;69.10;;;;;;4229413;28;20032;-61
2023/04/10 08:57:27;;;;;;;3.88;1.90;;;16.10;69.60;;;;;;4229211;28;20023;-61
2023/04/10 08:59:29;;;;;;;3.85;2.10;;;16.20;69.40;;;;;;4228927;28;20120;-60
2023/04/10 09:01:31;;;;;;;4.95;2.50;;;16.10;69.10;;;;;;4227776;28;20089;-60
2023/04/10 09:03:32;;;;;;;2.65;2.17;;;15.70;68.10;;;;;;4230108;28;20758;-65
2023/04/10 09:05:35;;;;;;;3.13;2.00;;;15.30;68.00;;;;;;4227953;28;20028;-61
2023/04/10 09:07:36;;;;;;;3.40;2.00;;;15.00;68.70;;;;;;4229578;28;20061;-66
2023/04/10 09:09:38;;;;;;;2.20;2.00;;;15.10;69.20;;;;;;4228730;28;20028;-68
2023/04/10 09:11:51;;;;;;;7.03;2.10;;;14.90;68.70;;;;;;4229174;28;20495;-63
2023/04/10 09:13:52;;;;;;;3.38;2.30;;;14.80;68.60;;;;;;4229222;28;20027;-62
2023/04/10 09:15:58;;;;;;;2.20;2.00;;;15.10;69.20;;;;;;4228927;28;20152;-64
2023/04/10 09:18:01;;;;;;;3.75;1.67;;;15.00;68.50;;;;;;4228633;28;20028;-69
2023/04/10 09:20:18;;;;;;;3.08;2.20;;;15.10;68.50;;;;;;4229860;28;20076;-62
2023/04/10 09:22:31;;;;;;;1.63;1.52;;;15.30;68.70;;;;;;4228642;28;20036;-62
2023/04/10 09:24:43;;;;;;;3.13;2.45;;;15.20;67.00;;;;;;4229015;28;20043;-62
2023/04/10 09:26:44;;;;;;;1.80;1.42;;;15.40;68.40;;;;;;4228317;28;20024;-62
2023/04/10 09:29:06;;;;;;;1.92;1.80;;;15.30;67.10;;;;;;4228808;28;20080;-64
2023/04/10 09:31:33;;;;;;;4.05;1.92;;;15.10;66.20;;;;;;4227908;28;20089;-64
2023/04/10 09:33:34;;;;;;;1.92;1.67;;;14.70;65.60;;;;;;4229617;28;20027;-62
2023/04/10 09:35:37;;;;;;;5.55;1.92;;;14.40;67.40;;;;;;4227904;28;20109;-61
2023/04/10 09:37:40;;;;;;;13.87;2.30;;;14.20;68.20;;;;;;4229560;28;20093;-61
2023/04/10 09:39:42;;;;;;;4.47;2.35;;;14.10;69.30;;;;;;4227468;28;20117;-62
2023/04/10 09:41:51;;;;;;;3.00;2.20;;;14.40;69.80;;;;;;4228344;28;20085;-62
2023/04/10 09:44:10;;;;;;;3.17;1.90;;;14.80;69.90;;;;;;4228571;28;20031;-62
2023/04/10 09:46:24;;;;;;;2.47;1.80;;;14.80;68.40;;;;;;4228951;28;20092;-61
2023/04/10 09:48:26;;;;;;;2.13;1.75;;;14.40;68.80;;;;;;4227919;28;20015;-63
2023/04/10 09:50:38;;;;;;;6.53;2.10;;;14.30;69.80;;;;;;4229293;28;20016;-61
2023/04/10 09:52:39;;;;;;;3.00;2.30;;;14.40;70.30;;;;;;4208901;28;20503;-61
2023/04/10 09:54:40;;;;;;;3.30;1.92;;;14.60;70.50;;;;;;4228952;28;20077;-61
2023/04/10 09:56:44;;;;;;;2.60;1.75;;;14.90;70.30;;;;;;4227890;28;20507;-62
2023/04/10 09:58:46;;;;;;;2.88;1.65;;;15.20;70.10;;;;;;4228726;28;20081;-69
2023/04/10 10:00:48;;;;;;;4.03;2.17;;;15.20;69.50;;;;;;4227802;28;20016;-62
2023/04/10 10:02:50;;;;;;;6.43;2.13;;;15.10;69.40;;;;;;4228432;28;20468;-62
2023/04/10 10:04:52;;;;;;;3.07;2.10;;;14.90;69.80;;;;;;4227998;28;20076;-61
2023/04/10 10:06:54;;;;;;;1.75;1.63;;;14.60;69.10;;;;;;4227126;28;20168;-62
2023/04/10 10:08:55;;;;;;;2.15;1.75;;;14.60;69.50;;;;;;4227372;28;20032;-62
2023/04/10 10:10:59;;;;;;;2.38;2.17;;;14.70;69.50;;;;;;4227660;28;20023;-61
2023/04/10 10:13:02;;;;;;;3.42;2.30;;;14.60;69.10;;;;;;4228565;28;20019;-60
2023/04/10 10:15:15;;;;;;;4.93;2.67;;;14.50;69.40;;;;;;4227872;28;20104;-61
2023/04/10 10:17:20;;;;;;;3.97;2.00;;;14.80;69.60;;;;;;4228194;28;20040;-61
2023/04/10 10:19:41;;;;;;;3.53;2.57;;;14.60;68.90;;;;;;4227752;28;20027;-67
2023/04/10 10:21:44;;;;;;;4.70;2.20;;;14.30;68.90;;;;;;4227602;28;20491;-61
2023/04/10 10:23:47;;;;;;;4.32;2.03;;;14.30;69.70;;;;;;4227419;28;20052;-61
2023/04/10 10:25:50;;;;;;;3.95;2.25;;;14.40;70.80;;;;;;4227630;28;20069;-61
2023/04/10 10:27:54;;;;;;;3.30;2.00;;;14.40;69.40;;;;;;4227285;28;20023;-61
2023/04/10 10:29:58;;;;;;;2.90;1.80;;;14.50;69.40;;;;;;4209635;28;20073;-60
2023/04/10 10:32:01;;;;;;;5.00;1.97;;;14.80;69.80;;;;;;4226125;28;20429;-61
2023/04/10 10:34:05;;;;;;;3.07;2.53;;;14.80;69.10;;;;;;4227720;28;20436;-60
2023/04/10 10:36:09;;;;;;;4.93;2.10;;;14.90;69.80;;;;;;4227074;28;20035;-61